Time;durP1;ratioP1;P1;durP2;ratioP2;P2;SDS_P1;SDS_P2;PMS_P1;PMS_P2;Temp;Humidity;BMP_temperature;BMP_pressure;BME280_temperature;BME280_humidity;BME280_pressure;Samples;Min_cycle;Max_cycle;Signal;HPM_P1;HPM_P2
2020/12/01 00:00:00;;;;;;;102.93;38.72;;;;;;;-0.09;100.00;98268.22;5071850;28;20405;-83
2020/12/01 00:02:26;;;;;;;124.00;40.53;;;;;;;-0.03;100.00;98270.81;5060167;28;20089;-84
2020/12/01 00:04:52;;;;;;;118.68;43.95;;;;;;;0.05;100.00;98271.63;5072847;28;20551;-83
2020/12/01 00:07:17;;;;;;;113.53;41.42;;;;;;;0.11;100.00;98274.19;5053979;28;20024;-84
2020/12/01 00:09:44;;;;;;;124.25;44.97;;;;;;;0.12;100.00;98273.31;5070972;28;20025;-83
2020/12/01 00:12:10;;;;;;;146.70;50.20;;;;;;;0.17;100.00;98278.53;5045652;28;20096;-84
2020/12/01 00:14:36;;;;;;;155.18;54.83;;;;;;;0.24;100.00;98281.09;5053888;28;20036;-83
2020/12/01 00:17:01;;;;;;;151.63;51.78;;;;;;;0.33;100.00;98286.28;5053683;28;20040;-83
2020/12/01 00:19:27;;;;;;;140.77;53.47;;;;;;;0.32;100.00;98279.25;5067796;28;20031;-83
2020/12/01 00:21:53;;;;;;;177.20;64.05;;;;;;;0.32;100.00;98275.75;5056271;28;20028;-84
2020/12/01 00:24:18;;;;;;;173.05;62.22;;;;;;;0.28;100.00;98263.50;5066494;28;20032;-83
2020/12/01 00:26:44;;;;;;;179.48;63.95;;;;;;;0.33;100.00;98275.75;5074282;28;20050;-84
2020/12/01 00:29:10;;;;;;;182.27;66.75;;;;;;;0.31;100.00;98279.25;5070444;28;20488;-83
2020/12/01 00:31:41;;;;;;;194.60;69.28;;;;;;;0.22;100.00;98282.84;5070890;28;20552;-85
2020/12/01 00:34:12;;;;;;;190.27;70.05;;;;;;;0.13;100.00;98275.03;5070360;28;20063;-83
2020/12/01 00:36:37;;;;;;;173.73;67.35;;;;;;;0.15;100.00;98281.19;5053665;28;20044;-84
2020/12/01 00:39:04;;;;;;;179.25;67.78;;;;;;;0.18;100.00;98285.53;5070190;28;20031;-83
2020/12/01 00:41:30;;;;;;;185.48;72.88;;;;;;;-0.03;100.00;98276.94;5053686;28;20025;-84
2020/12/01 00:43:56;;;;;;;189.45;72.68;;;;;;;-0.14;100.00;98275.28;5053086;28;20044;-83
2020/12/01 00:46:21;;;;;;;167.27;61.75;;;;;;;-0.16;100.00;98274.44;5053560;28;20486;-83
2020/12/01 00:48:47;;;;;;;154.40;58.92;;;;;;;-0.20;100.00;98276.22;5061619;28;20120;-83
2020/12/01 00:51:13;;;;;;;160.20;59.05;;;;;;;-0.11;100.00;98276.16;5073350;28;20024;-83
2020/12/01 00:53:39;;;;;;;151.07;56.38;;;;;;;0.03;100.00;98283.94;5075606;28;20032;-83
2020/12/01 00:56:05;;;;;;;146.65;52.63;;;;;;;0.01;100.00;98277.78;5067175;28;20089;-82
2020/12/01 00:58:30;;;;;;;131.57;46.88;;;;;;;-0.03;100.00;98265.53;5057922;28;20028;-83
2020/12/01 01:00:56;;;;;;;137.65;43.22;;;;;;;0.06;100.00;98268.13;5074868;28;20479;-83
2020/12/01 01:03:22;;;;;;;197.18;45.92;;;;;;;0.04;100.00;98261.97;5077602;28;20028;-83
2020/12/01 01:05:47;;;;;;;189.98;47.20;;;;;;;-0.09;100.00;98260.34;5077516;28;20028;-83
2020/12/01 01:08:13;;;;;;;195.02;51.45;;;;;;;-0.09;100.00;98257.72;5074652;28;20071;-83
2020/12/01 01:10:39;;;;;;;186.82;53.85;;;;;;;-0.05;100.00;98262.06;5057637;28;20024;-83
2020/12/01 01:13:05;;;;;;;171.48;54.00;;;;;;;-0.23;100.00;98254.34;5057099;28;20033;-83
2020/12/01 01:15:33;;;;;;;190.98;61.70;;;;;;;-0.21;100.00;98250.81;5057541;28;20499;-83
2020/12/01 01:17:59;;;;;;;182.68;61.03;;;;;;;-0.24;100.00;98255.22;5056992;28;20098;-84
2020/12/01 01:20:26;;;;;;;160.80;53.13;;;;;;;-0.20;100.00;98256.94;5069379;28;20054;-84
2020/12/01 01:22:52;;;;;;;149.32;46.83;;;;;;;-0.24;100.00;98256.09;5077105;28;20024;-82
2020/12/01 01:25:17;;;;;;;150.77;47.92;;;;;;;-0.29;100.00;98250.00;5093996;28;20024;-83
2020/12/01 01:27:46;;;;;;;159.18;49.00;;;;;;;-0.21;100.00;98248.19;5077279;28;20020;-84
2020/12/01 01:30:20;;;;;;;150.32;49.90;;;;;;;-0.14;100.00;98262.16;5077034;28;20097;-84
2020/12/01 01:32:45;;;;;;;146.43;47.92;;;;;;;-0.12;100.00;98250.72;5062207;28;20093;-83
2020/12/01 01:35:11;;;;;;;139.77;49.03;;;;;;;-0.17;100.00;98242.03;5090139;28;20107;-83
2020/12/01 01:37:37;;;;;;;157.18;52.25;;;;;;;-0.11;100.00;98246.34;5056597;28;20040;-83
2020/12/01 01:40:04;;;;;;;286.70;63.65;;;;;;;-0.20;100.00;98246.44;5092075;28;20032;-84
2020/12/01 01:42:30;;;;;;;217.65;60.33;;;;;;;-0.26;100.00;98246.47;5088227;28;20070;-84
2020/12/01 01:44:55;;;;;;;167.00;54.15;;;;;;;-0.25;100.00;98243.84;5057588;28;20529;-83
2020/12/01 01:47:23;;;;;;;174.02;55.95;;;;;;;-0.25;100.00;98246.47;5076870;28;20020;-84
2020/12/01 01:50:00;;;;;;;193.30;58.85;;;;;;;-0.23;100.00;98241.19;5077121;28;20031;-84
2020/12/01 01:52:38;;;;;;;167.32;53.58;;;;;;;-0.22;100.00;98250.84;5063425;28;20125;-84
2020/12/01 01:55:17;;;;;;;207.80;58.38;;;;;;;-0.19;100.00;98242.94;5075016;28;20479;-84
2020/12/01 01:57:46;;;;;;;169.95;53.33;;;;;;;-0.08;100.00;98243.69;5076695;28;20038;-84
2020/12/01 02:00:56;;;;;;;201.07;53.88;;;;;;;-0.13;100.00;98238.50;5073694;28;20028;-84
2020/12/01 02:03:36;;;;;;;341.80;59.92;;;;;;;-0.27;100.00;98234.22;5077031;28;20046;-83
2020/12/01 02:06:24;;;;;;;231.05;59.03;;;;;;;-0.25;100.00;98232.47;5075169;28;20052;-83
2020/12/01 02:09:14;;;;;;;221.95;59.08;;;;;;;-0.22;100.00;98230.69;5092635;28;20392;-84
2020/12/01 02:11:42;;;;;;;178.43;57.17;;;;;;;-0.13;100.00;98237.63;5093110;28;20089;-84
2020/12/01 02:14:12;;;;;;;204.90;56.42;;;;;;;-0.18;100.00;98235.00;5076056;28;20479;-84
2020/12/01 02:16:42;;;;;;;299.85;57.58;;;;;;;-0.14;100.00;98231.47;5086904;28;20028;-84
2020/12/01 02:19:12;;;;;;;211.68;56.25;;;;;;;-0.16;100.00;98221.88;5074832;28;20038;-83
2020/12/01 02:21:39;;;;;;;352.17;56.60;;;;;;;-0.12;100.00;98224.44;5076160;28;20040;-84
2020/12/01 02:24:08;;;;;;;239.85;51.75;;;;;;;-0.15;100.00;98223.59;5059436;28;20502;-84
2020/12/01 02:26:34;;;;;;;432.90;59.33;;;;;;;-0.26;100.00;98217.56;5076140;28;20055;-84
2020/12/01 02:29:12;;;;;;;265.17;54.67;;;;;;;-0.19;100.00;98235.91;5075908;28;20038;-84
2020/12/01 02:31:38;;;;;;;345.05;53.10;;;;;;;-0.19;100.00;98232.41;5076150;28;20483;-84
2020/12/01 02:34:05;;;;;;;334.73;52.20;;;;;;;-0.14;100.00;98227.97;5075732;28;20028;-84
2020/12/01 02:36:31;;;;;;;195.30;47.08;;;;;;;-0.13;100.00;98227.09;5092639;28;20024;-84
2020/12/01 02:38:57;;;;;;;368.65;55.33;;;;;;;-0.18;100.00;98219.25;5067632;28;20042;-84
2020/12/01 02:41:22;;;;;;;277.42;51.47;;;;;;;-0.35;100.00;98215.03;5055681;28;20021;-85
2020/12/01 02:43:48;;;;;;;477.60;59.38;;;;;;;-0.32;100.00;98213.25;5070520;28;20058;-85
2020/12/01 02:46:14;;;;;;;237.52;47.92;;;;;;;-0.21;100.00;98213.13;5064973;28;20059;-85
2020/12/01 02:48:40;;;;;;;193.32;48.08;;;;;;;-0.22;100.00;98220.19;5055720;28;20027;-85
2020/12/01 02:51:05;;;;;;;251.48;47.42;;;;;;;-0.25;100.00;98216.69;5072441;28;20028;-84
2020/12/01 02:53:31;;;;;;;425.98;57.40;;;;;;;-0.50;100.00;98212.53;5055652;28;20029;-85
2020/12/01 02:55:56;;;;;;;202.77;47.85;;;;;;;-0.49;100.00;98216.91;5072580;28;20060;-85
2020/12/01 02:58:22;;;;;;;391.27;56.05;;;;;;;-0.41;100.00;98225.59;5071995;28;20021;-84
2020/12/01 03:00:48;;;;;;;344.27;52.53;;;;;;;-0.46;100.00;98224.75;5070413;28;20040;-85
2020/12/01 03:03:13;;;;;;;340.33;54.17;;;;;;;-0.32;100.00;98222.88;5059088;28;20032;-85
2020/12/01 03:05:39;;;;;;;365.25;51.75;;;;;;;-0.22;100.00;98227.19;5070231;28;20044;-85
2020/12/01 03:08:05;;;;;;;188.93;43.33;;;;;;;-0.33;100.00;98202.72;5072324;28;20024;-84
2020/12/01 03:10:30;;;;;;;331.42;45.55;;;;;;;-0.41;100.00;98207.19;5092162;28;20441;-85
2020/12/01 03:12:56;;;;;;;459.63;48.95;;;;;;;-0.29;100.00;98222.84;5092020;28;20414;-84
2020/12/01 03:15:22;;;;;;;342.65;46.90;;;;;;;-0.33;100.00;98224.63;5074968;28;20039;-84
2020/12/01 03:17:49;;;;;;;247.73;44.63;;;;;;;-0.42;100.00;98219.44;5074924;28;20535;-85
2020/12/01 03:20:14;;;;;;;295.85;47.20;;;;;;;-0.48;100.00;98219.50;5074561;28;20032;-85
2020/12/01 03:22:40;;;;;;;449.90;49.22;;;;;;;-0.43;100.00;98220.31;5075070;28;20024;-85
2020/12/01 03:25:05;;;;;;;325.65;44.28;;;;;;;-0.58;100.00;98217.81;5075045;28;20020;-85
2020/12/01 03:27:31;;;;;;;494.00;56.00;;;;;;;-0.68;100.00;98214.38;5074707;28;20027;-84
2020/12/01 03:29:57;;;;;;;358.85;47.63;;;;;;;-0.59;100.00;98211.72;5059518;28;20435;-84
2020/12/01 03:32:24;;;;;;;211.80;45.92;;;;;;;-0.64;100.00;98220.50;5065330;28;20544;-85
2020/12/01 03:34:51;;;;;;;366.65;52.25;;;;;;;-0.59;100.00;98227.47;5068992;28;20028;-84
2020/12/01 03:37:16;;;;;;;198.90;46.53;;;;;;;-0.61;100.00;98217.84;5089424;28;20044;-84
2020/12/01 03:39:42;;;;;;;281.48;50.78;;;;;;;-0.57;100.00;98223.06;5074785;28;20392;-84
2020/12/01 03:42:08;;;;;;;471.63;57.72;;;;;;;-0.59;100.00;98219.59;5058789;28;20111;-84
2020/12/01 03:44:34;;;;;;;240.10;45.30;;;;;;;-0.62;100.00;98211.75;5071358;28;20059;-84
2020/12/01 03:46:59;;;;;;;237.05;44.03;;;;;;;-0.59;100.00;98214.34;5071325;28;20040;-84
2020/12/01 03:49:25;;;;;;;195.38;45.08;;;;;;;-0.51;100.00;98218.66;5056896;28;20123;-85
2020/12/01 03:51:51;;;;;;;345.10;48.20;;;;;;;-0.42;100.00;98224.69;5074933;28;20071;-84
2020/12/01 03:54:16;;;;;;;429.98;55.92;;;;;;;-0.44;100.00;98220.34;5074736;28;20118;-84
2020/12/01 03:56:42;;;;;;;360.02;50.30;;;;;;;-0.39;100.00;98231.69;5075074;28;20066;-84
2020/12/01 03:59:08;;;;;;;268.05;45.20;;;;;;;-0.38;100.00;98221.19;5066166;28;20462;-85
2020/12/01 04:01:34;;;;;;;275.27;46.85;;;;;;;-0.38;100.00;98231.69;5054238;28;20438;-85
2020/12/01 04:03:59;;;;;;;351.58;52.38;;;;;;;-0.40;100.00;98236.06;5054437;28;20028;-85
2020/12/01 04:06:25;;;;;;;182.65;45.92;;;;;;;-0.39;100.00;98226.44;5053839;28;20111;-84
2020/12/01 04:08:51;;;;;;;301.15;44.58;;;;;;;-0.32;100.00;98225.50;5054084;28;20048;-85
2020/12/01 04:11:16;;;;;;;224.63;41.28;;;;;;;-0.43;100.00;98227.38;5087532;28;20107;-84
2020/12/01 04:13:42;;;;;;;206.73;51.58;;;;;;;-0.51;100.00;98226.53;5053990;28;20029;-85
2020/12/01 04:16:08;;;;;;;188.05;50.95;;;;;;;-0.49;100.00;98224.78;5054086;28;20025;-85
2020/12/01 04:18:34;;;;;;;242.73;45.30;;;;;;;-0.55;100.00;98223.03;5053679;28;20472;-83
2020/12/01 04:20:59;;;;;;;218.05;45.60;;;;;;;-0.50;100.00;98228.28;5070896;28;20432;-84
2020/12/01 04:23:25;;;;;;;141.05;40.97;;;;;;;-0.61;100.00;98213.47;5055500;28;20043;-83
2020/12/01 04:25:51;;;;;;;263.02;44.97;;;;;;;-0.66;100.00;98219.63;5091857;28;20028;-83
2020/12/01 04:28:16;;;;;;;140.38;38.45;;;;;;;-0.63;100.00;98220.50;5090082;28;20051;-83
2020/12/01 04:30:42;;;;;;;145.70;39.90;;;;;;;-0.60;100.00;98220.47;5090395;28;20020;-84
2020/12/01 04:33:08;;;;;;;191.48;43.00;;;;;;;-0.54;100.00;98227.44;5073687;28;20409;-84
2020/12/01 04:35:33;;;;;;;161.32;42.28;;;;;;;-0.55;100.00;98228.31;5062827;28;20540;-83
2020/12/01 04:38:04;;;;;;;211.13;41.08;;;;;;;-0.62;100.00;98226.63;5061957;28;20110;-84
2020/12/01 04:40:33;;;;;;;210.00;42.80;;;;;;;-0.58;100.00;98223.94;5070277;28;20055;-83
2020/12/01 04:43:09;;;;;;;217.40;44.88;;;;;;;-0.56;100.00;98227.47;5070667;28;20029;-83
2020/12/01 04:45:35;;;;;;;196.02;45.17;;;;;;;-0.66;100.00;98231.03;5064329;28;20056;-84
2020/12/01 04:48:04;;;;;;;137.40;38.28;;;;;;;-0.61;100.00;98234.47;5073784;28;20066;-84
2020/12/01 04:50:37;;;;;;;246.57;43.20;;;;;;;-0.58;100.00;98229.19;5073441;28;20024;-83
2020/12/01 04:53:22;;;;;;;188.07;45.47;;;;;;;-0.54;100.00;98230.06;5067351;28;20024;-84
2020/12/01 04:55:59;;;;;;;131.57;43.65;;;;;;;-0.62;100.00;98230.13;5070180;28;20044;-83
2020/12/01 04:58:53;;;;;;;172.15;47.38;;;;;;;-0.70;100.00;98234.53;5053288;28;20043;-83
2020/12/01 05:01:51;;;;;;;159.02;46.55;;;;;;;-0.61;100.00;98234.47;5070050;28;20479;-83
2020/12/01 05:04:25;;;;;;;249.30;64.18;;;;;;;-0.62;100.00;98224.88;5072437;28;20154;-84
2020/12/01 05:07:19;;;;;;;172.88;48.97;;;;;;;-0.53;100.00;98221.31;5073849;28;20440;-84
2020/12/01 05:09:52;;;;;;;163.32;48.17;;;;;;;-0.60;100.00;98227.47;5049844;28;20070;-84
2020/12/01 05:12:32;;;;;;;171.98;51.28;;;;;;;-0.58;100.00;98223.06;5069324;28;20024;-84
2020/12/01 05:15:01;;;;;;;204.23;51.33;;;;;;;-0.68;100.00;98219.63;5073322;28;20064;-84
2020/12/01 05:17:55;;;;;;;175.65;47.97;;;;;;;-0.61;100.00;98223.97;5056144;28;20029;-84
2020/12/01 05:20:21;;;;;;;196.88;57.13;;;;;;;-0.55;100.00;98221.28;5069585;28;20502;-83
2020/12/01 05:22:52;;;;;;;206.07;60.35;;;;;;;-0.56;100.00;98224.81;5056375;28;20036;-84
2020/12/01 05:25:23;;;;;;;194.50;58.60;;;;;;;-0.51;100.00;98218.66;5073288;28;20085;-84
2020/12/01 05:28:19;;;;;;;187.88;53.63;;;;;;;-0.47;100.00;98210.75;5078191;28;20078;-84
2020/12/01 05:30:45;;;;;;;192.73;50.72;;;;;;;-0.48;100.00;98221.25;5052529;28;20029;-84
2020/12/01 05:33:19;;;;;;;200.35;54.80;;;;;;;-0.45;100.00;98218.59;5053235;28;20043;-84
2020/12/01 05:36:02;;;;;;;209.55;59.88;;;;;;;-0.48;100.00;98223.88;5069520;28;20020;-84
2020/12/01 05:38:29;;;;;;;186.30;56.65;;;;;;;-0.57;100.00;98209.06;5078842;28;20078;-84
2020/12/01 05:41:01;;;;;;;198.07;56.55;;;;;;;-0.50;100.00;98215.16;5075780;28;20085;-84
2020/12/01 05:43:36;;;;;;;209.87;55.23;;;;;;;-0.68;100.00;98221.41;5077326;28;20031;-83
2020/12/01 05:46:34;;;;;;;202.90;52.47;;;;;;;-0.77;100.00;98200.47;5072444;28;20828;-84
2020/12/01 05:49:23;;;;;;;164.02;51.80;;;;;;;-0.58;100.00;98216.06;5074074;28;20114;-84
2020/12/01 05:51:55;;;;;;;137.73;42.70;;;;;;;-0.55;100.00;98215.16;5069396;28;20040;-84
2020/12/01 05:54:23;;;;;;;146.25;41.97;;;;;;;-0.63;100.00;98209.09;5076840;28;20144;-83
2020/12/01 05:56:53;;;;;;;180.10;51.65;;;;;;;-0.51;100.00;98213.38;5073260;28;20043;-83
2020/12/01 05:59:21;;;;;;;177.07;49.28;;;;;;;-0.42;100.00;98218.56;5056277;28;20112;-84
2020/12/01 06:01:53;;;;;;;438.00;171.48;;;;;;;-0.59;100.00;98206.47;5092773;28;20438;-84
2020/12/01 06:04:24;;;;;;;242.38;72.75;;;;;;;-0.52;100.00;98209.03;5061479;28;20495;-84
2020/12/01 06:07:21;;;;;;;167.82;44.30;;;;;;;-0.55;100.00;98226.56;5059249;28;20476;-84
2020/12/01 06:10:08;;;;;;;124.03;37.17;;;;;;;-0.41;100.00;98228.22;5056707;28;20086;-86
2020/12/01 06:13:13;;;;;;;213.55;48.80;;;;;;;-0.50;100.00;98228.28;5073265;28;20085;-85
2020/12/01 06:15:47;;;;;;;269.27;40.58;;;;;;;-0.72;100.00;98224.94;5084696;28;20506;-86
2020/12/01 06:18:17;;;;;;;210.20;34.50;;;;;;;-0.69;100.00;98214.41;5062209;28;20028;-85
2020/12/01 06:20:51;;;;;;;194.63;36.42;;;;;;;-0.68;100.00;98217.00;5058528;28;20101;-85
2020/12/01 06:23:38;;;;;;;193.60;45.45;;;;;;;-0.56;100.00;98222.22;5063817;28;20012;-84
2020/12/01 06:26:22;;;;;;;178.70;39.67;;;;;;;-0.41;100.00;98228.22;5082115;28;20024;-86
2020/12/01 06:29:01;;;;;;;179.90;36.28;;;;;;;-0.26;100.00;98228.09;5084855;28;20024;-88
2020/12/01 06:31:49;;;;;;;133.43;36.30;;;;;;;-0.12;100.00;98232.31;5087161;28;20032;-85
2020/12/01 06:34:39;;;;;;;113.28;34.00;;;;;;;-0.02;100.00;98231.38;5072832;28;20024;-85
2020/12/01 06:37:19;;;;;;;109.45;33.83;;;;;;;0.13;100.00;98234.72;5065682;28;20127;-84
2020/12/01 06:39:56;;;;;;;118.85;34.35;;;;;;;0.08;100.00;98226.91;5081626;28;20039;-87
2020/12/01 06:42:46;;;;;;;128.07;39.30;;;;;;;0.11;100.00;98232.13;5064043;28;20456;-85
2020/12/01 06:45:42;;;;;;;153.30;46.42;;;;;;;0.11;100.00;98240.00;5055085;28;20037;-86
2020/12/01 06:48:38;;;;;;;;;;;;;;;;;;;;;
2020/12/01 06:51:10;;;;;;;141.55;46.10;;;;;;;-0.03;100.00;98216.47;5070552;28;20039;-85
2020/12/01 06:53:37;;;;;;;;;;;;;;;0.18;99.82;98239.06;5085691;28;20035;-85
2020/12/01 06:56:05;;;;;;;129.52;41.95;;;;;;;0.27;100.00;98244.25;5062429;28;19916;-87
2020/12/01 06:59:05;;;;;;;154.95;50.17;;;;;;;0.17;99.99;98232.06;5079184;28;20442;-85
2020/12/01 07:01:34;;;;;;;170.07;50.10;;;;;;;0.14;99.41;98200.53;5063289;28;20024;-86
2020/12/01 07:04:33;;;;;;;146.45;43.72;;;;;;;0.02;98.53;98166.47;5065743;28;20032;-85
2020/12/01 07:07:03;;;;;;;144.95;46.13;;;;;;;0.40;98.98;98226.56;5065344;28;20035;-88
2020/12/01 07:09:56;;;;;;;;;;;;;;;;;;;;;
2020/12/01 07:12:55;;;;;;;168.88;54.72;;;;;;;0.87;97.72;98225.97;5071456;28;20040;-87
2020/12/01 07:15:44;;;;;;;184.85;51.10;;;;;;;0.83;96.87;98213.78;5079960;28;21068;-87
2020/12/01 07:18:24;;;;;;;159.20;49.33;;;;;;;0.50;97.43;98142.22;5063442;28;20028;-88
2020/12/01 07:21:15;;;;;;;166.95;52.50;;;;;;;0.44;97.43;98188.78;5091872;28;20047;-87
2020/12/01 07:24:19;;;;;;;156.52;48.42;;;;;;;0.21;98.51;98164.53;5079964;28;20032;-87
2020/12/01 07:27:05;;;;;;;181.35;48.17;;;;;;;0.60;98.31;98218.44;5070393;28;20546;-85
2020/12/01 07:29:52;;;;;;;150.20;46.30;;;;;;;0.82;98.02;98217.28;5070579;28;20530;-86
2020/12/01 07:32:21;;;;;;;151.82;45.88;;;;;;;0.60;97.88;98214.03;5075660;28;20081;-89
2020/12/01 07:34:48;;;;;;;207.65;47.80;;;;;;;0.43;98.29;98211.59;5082574;28;20027;-87
2020/12/01 07:37:16;;;;;;;156.23;49.17;;;;;;;0.44;98.85;98210.72;5060828;28;20079;-86
2020/12/01 07:39:56;;;;;;;180.52;50.38;;;;;;;0.52;98.66;98200.97;5086675;28;20035;-77
2020/12/01 07:42:25;;;;;;;208.13;59.88;;;;;;;0.65;98.04;98208.75;5052500;28;20023;-77
2020/12/01 07:44:50;;;;;;;243.63;75.43;;;;;;;0.71;97.55;98198.97;5074035;28;20047;-77
2020/12/01 07:47:19;;;;;;;235.57;65.90;;;;;;;0.85;96.33;98206.72;5067391;28;20025;-77
2020/12/01 07:49:56;;;;;;;220.50;66.32;;;;;;;1.03;95.46;98203.81;5065591;28;20028;-85
2020/12/01 07:52:28;;;;;;;184.25;56.35;;;;;;;1.05;95.65;98199.41;5053277;28;20116;-87
2020/12/01 07:55:14;;;;;;;173.50;56.13;;;;;;;1.25;95.26;98209.66;5057789;28;20043;-87
2020/12/01 07:57:40;;;;;;;222.18;69.38;;;;;;;1.20;94.86;98217.63;5079718;28;20558;-86
2020/12/01 08:00:06;;;;;;;223.25;71.45;;;;;;;1.28;94.27;98210.50;5068332;28;20040;-86
2020/12/01 08:02:32;;;;;;;203.27;63.13;;;;;;;1.22;94.42;98213.22;5057491;28;20044;-87
2020/12/01 08:05:06;;;;;;;215.85;63.83;;;;;;;1.06;94.80;98214.31;5052319;28;20408;-86
2020/12/01 08:07:35;;;;;;;187.95;64.22;;;;;;;1.38;93.57;98212.09;5058831;28;20689;-88
2020/12/01 08:10:13;;;;;;;186.52;62.15;;;;;;;1.62;91.44;98193.28;5062588;28;20488;-87
2020/12/01 08:12:45;;;;;;;226.40;71.88;;;;;;;2.03;89.36;98223.34;5052951;28;20030;-86
2020/12/01 08:15:19;;;;;;;172.67;59.20;;;;;;;2.05;89.28;98208.34;5063975;28;20029;-86
2020/12/01 08:17:44;;;;;;;167.23;56.97;;;;;;;2.02;88.42;98201.38;5064762;28;20281;-86
2020/12/01 08:20:15;;;;;;;208.82;74.28;;;;;;;2.39;88.51;98212.13;5053099;28;20025;-87
2020/12/01 08:22:46;;;;;;;156.32;53.47;;;;;;;2.71;86.00;98201.78;5052870;28;20039;-87
2020/12/01 08:25:14;;;;;;;138.23;48.70;;;;;;;2.48;83.44;98193.47;5054246;28;20518;-87
2020/12/01 08:27:49;;;;;;;151.57;54.78;;;;;;;2.31;83.02;98132.19;5060876;28;20064;-86
2020/12/01 08:30:23;;;;;;;151.80;53.97;;;;;;;2.72;82.12;98169.19;5065746;28;20028;-86
2020/12/01 08:32:56;;;;;;;155.25;53.28;;;;;;;2.96;82.71;98204.78;5064718;28;20085;-87
2020/12/01 08:35:25;;;;;;;145.98;51.70;;;;;;;2.88;83.68;98204.09;5068876;28;20019;-86
2020/12/01 08:38:20;;;;;;;164.38;58.00;;;;;;;3.13;81.70;98199.16;5068260;28;20083;-88
2020/12/01 08:41:37;;;;;;;195.80;70.47;;;;;;;3.08;82.18;98203.63;5067250;28;20478;-86
2020/12/01 08:44:05;;;;;;;210.50;75.07;;;;;;;3.34;82.67;98203.06;5048626;28;20044;-85
2020/12/01 08:46:32;;;;;;;250.18;81.15;;;;;;;2.83;83.77;98173.38;5064845;28;20522;-87
2020/12/01 08:49:09;;;;;;;239.68;81.30;;;;;;;2.59;84.79;98138.66;5059725;28;20029;-86
2020/12/01 08:51:53;;;;;;;223.65;64.63;;;;;;;2.56;86.72;98201.22;5080876;28;20036;-86
2020/12/01 08:54:28;;;;;;;205.93;60.17;;;;;;;2.40;87.44;98190.09;5063538;28;20123;-85
2020/12/01 08:57:15;;;;;;;181.35;58.28;;;;;;;2.21;88.96;98193.13;5066454;28;20125;-85
2020/12/01 08:59:48;;;;;;;206.30;60.53;;;;;;;2.15;88.11;98194.09;5055136;28;20024;-89
2020/12/01 09:02:48;;;;;;;211.48;71.85;;;;;;;1.81;90.15;98133.19;5066871;28;20491;-90
2020/12/01 09:05:34;;;;;;;184.90;58.08;;;;;;;2.37;88.32;98171.66;5079651;28;20047;-88
2020/12/01 09:11:22;;;;;;;182.57;56.25;;;;;;;2.27;88.27;98180.69;5088104;28;20033;-87
2020/12/01 09:16:52;;;;;;;205.20;62.55;;;;;;;2.19;87.81;98175.53;5080497;28;20086;-88
2020/12/01 09:22:33;;;;;;;213.68;64.43;;;;;;;2.48;87.20;98163.56;5072673;28;20039;-86
2020/12/01 09:25:06;;;;;;;;;;;;;;;2.54;87.55;98164.31;5070244;28;20038;-82
2020/12/01 09:27:33;;;;;;;198.88;55.58;;;;;;;2.61;87.38;98165.91;5074085;28;19946;-80
2020/12/01 09:29:59;;;;;;;197.63;58.45;;;;;;;2.24;86.77;98159.63;5062564;28;20032;-80
2020/12/01 09:32:24;;;;;;;211.27;63.08;;;;;;;2.43;86.56;98157.50;5053750;28;20060;-80
2020/12/01 09:34:50;;;;;;;196.75;57.20;;;;;;;2.50;86.48;98159.97;5068180;28;20032;-80
2020/12/01 09:37:17;;;;;;;215.75;61.22;;;;;;;2.57;86.73;98153.66;5053432;28;20072;-77
2020/12/01 09:39:43;;;;;;;196.82;57.88;;;;;;;2.72;86.43;98132.22;5070273;28;20025;-78
2020/12/01 09:42:20;;;;;;;184.77;58.13;;;;;;;2.57;85.43;98145.75;5070901;28;20358;-78
2020/12/01 09:50:02;;;;;;;194.52;57.75;;;;;;;2.03;89.50;98139.78;5090712;28;20034;-77
2020/12/01 09:52:38;;;;;;;190.40;57.53;;;;;;;1.98;89.16;98132.84;5083797;28;20016;-76
2020/12/01 09:55:21;;;;;;;195.57;59.05;;;;;;;2.50;88.32;98130.94;5054724;28;20112;-77
2020/12/01 09:57:58;;;;;;;179.88;56.33;;;;;;;2.92;84.41;98115.06;5076067;28;20042;-77
2020/12/01 10:07:58;;;;;;;209.77;62.03;;;;;;;3.22;82.48;98122.28;5069709;28;20031;-77
2020/12/01 10:10:34;;;;;;;201.60;64.82;;;;;;;3.27;82.92;98107.19;5057479;28;20032;-77
2020/12/01 10:21:01;;;;;;;227.40;75.35;;;;;;;6.04;69.47;98098.03;5083384;28;20455;-77
2020/12/01 10:36:26;;;;;;;170.82;62.55;;;;;;;7.76;59.52;98111.72;5088454;28;20503;-78
2020/12/01 10:38:52;;;;;;;172.55;62.15;;;;;;;7.47;61.40;98107.63;5089514;28;20526;-76
2020/12/01 10:41:32;;;;;;;163.52;59.47;;;;;;;6.81;62.70;98100.50;5090240;28;20031;-85
2020/12/01 10:43:58;;;;;;;170.05;59.40;;;;;;;5.76;67.82;98091.00;5073868;28;20522;-87
2020/12/01 10:46:25;;;;;;;161.60;58.30;;;;;;;5.45;67.73;98095.59;5056530;28;20062;-88
2020/12/01 10:48:54;;;;;;;164.82;58.13;;;;;;;5.04;70.20;98090.75;5056733;28;20468;-88
2020/12/01 10:51:29;;;;;;;141.40;51.22;;;;;;;5.10;71.05;98080.84;5091310;28;20032;-86
2020/12/01 10:54:10;;;;;;;150.35;52.50;;;;;;;5.38;67.98;98079.00;5058653;28;20365;-86
2020/12/01 10:56:36;;;;;;;152.13;55.60;;;;;;;5.36;69.68;98072.03;5075730;28;20032;-86
2020/12/01 10:59:02;;;;;;;143.32;50.85;;;;;;;5.16;69.55;98021.44;5098449;28;20035;-86
2020/12/01 11:01:50;;;;;;;139.70;50.53;;;;;;;6.11;68.27;98088.94;5080647;28;20032;-86
2020/12/01 11:04:17;;;;;;;137.30;53.63;;;;;;;5.99;67.99;98077.84;5087098;28;20027;-86
2020/12/01 11:06:43;;;;;;;134.27;49.83;;;;;;;6.00;67.54;98014.97;5069014;28;20045;-86
2020/12/01 11:09:16;;;;;;;120.63;45.35;;;;;;;7.06;64.74;98090.66;5064769;28;20163;-86
2020/12/01 11:11:42;;;;;;;118.47;43.13;;;;;;;7.73;62.38;98066.59;5064441;28;20062;-86
2020/12/01 11:14:08;;;;;;;125.07;46.22;;;;;;;8.23;59.97;98072.41;5071398;28;20054;-86
2020/12/01 11:16:41;;;;;;;119.63;44.72;;;;;;;8.86;58.23;98074.84;5068865;28;20101;-87
2020/12/01 11:19:07;;;;;;;111.97;44.53;;;;;;;8.06;57.97;98043.84;5090035;28;20445;-86
2020/12/01 11:21:45;;;;;;;121.88;46.47;;;;;;;7.43;61.02;98053.66;5075100;28;20045;-85
2020/12/01 11:24:31;;;;;;;121.07;49.95;;;;;;;6.62;62.81;98051.59;5074922;28;20067;-86
2020/12/01 11:27:43;;;;;;;121.82;46.75;;;;;;;5.77;66.81;98052.94;5087219;28;20059;-87
2020/12/01 11:30:09;;;;;;;175.98;69.07;;;;;;;4.35;70.51;97964.84;5090078;28;20107;-85
2020/12/01 11:32:34;;;;;;;143.15;57.53;;;;;;;4.26;71.89;97973.06;5077990;28;20024;-86
2020/12/01 11:35:46;;;;;;;184.05;71.70;;;;;;;3.72;73.67;97947.31;5054425;28;20419;-87
2020/12/01 11:39:11;;;;;;;191.75;75.53;;;;;;;3.56;76.90;97993.63;5088743;28;20044;-86
2020/12/01 11:41:37;;;;;;;169.80;59.05;;;;;;;3.81;77.40;98004.41;5043083;28;20044;-84
2020/12/01 11:44:54;;;;;;;164.30;58.83;;;;;;;3.67;77.61;97949.22;5082346;28;20032;-86
2020/12/01 11:47:26;;;;;;;172.98;62.22;;;;;;;3.96;77.21;97972.22;5062594;28;20078;-85
2020/12/01 11:49:55;;;;;;;244.20;95.32;;;;;;;4.00;78.56;97979.13;5063182;28;20182;-85
2020/12/01 11:55:24;;;;;;;;;;;;;;;;;;;;;
2020/12/01 12:00:53;;;;;;;179.23;70.13;;;;;;;4.46;76.60;98001.63;5082816;28;20042;-87
2020/12/01 12:03:41;;;;;;;201.18;76.55;;;;;;;3.74;76.67;97940.22;5062334;28;20096;-86
2020/12/01 12:06:08;;;;;;;201.43;78.03;;;;;;;3.86;77.86;97975.16;5077476;28;20420;-87
2020/12/01 12:08:34;;;;;;;209.25;80.00;;;;;;;4.02;78.90;97995.84;5076061;28;20494;-88
2020/12/01 12:11:24;;;;;;;210.05;78.13;;;;;;;3.93;79.47;97958.19;5063768;28;20032;-88
2020/12/01 12:16:48;;;;;;;208.02;77.10;;;;;;;3.36;80.23;97903.38;5070504;28;20468;-87
2020/12/01 12:19:14;;;;;;;210.30;78.00;;;;;;;3.97;79.63;97954.56;5089708;28;20502;-87
2020/12/01 12:21:40;;;;;;;209.38;76.35;;;;;;;3.95;80.39;97982.81;5088522;28;20035;-86
2020/12/01 12:33:32;;;;;;;;;;;;;;;;;;;;;
2020/12/01 12:36:01;;;;;;;250.88;92.32;;;;;;;3.81;79.50;97949.69;4920573;29;20638;-87
2020/12/01 12:38:28;;;;;;;257.05;83.57;;;;;;;3.60;80.35;97979.38;4919771;29;20036;-85
2020/12/01 12:42:11;;;;;;;;;;;;;;;;;;;;;